KILM/ILM METAR and TAF weather

Enter ICAO airport designator
Station Type Date Time Source
KILM METAR 2020/09/18 16:53 UTC NOAA

KILM 181653Z 01013G22KT 10SM BKN013 OVC019 24/21 A2982 RMK AO2 SLP097 T02390206


Station Type Date Time Source
KILM Decoded METAR 2020/09/18 16:53 UTC NOAA

WILMINGTON INT'L AIRPORT, NC, United States (KILM) 34-16N 077-54W 9M
Sep 18, 2020 - 12:53 PM EDT / 2020.09.18 1653 UTC
Wind: from the N (010 degrees) at 15 MPH (13 KT) gusting to 25 MPH (22 KT):0
Visibility: 10 mile(s):0
Sky conditions: overcast
Temperature: 75.0 F (23.9 C)
Dew Point: 69.1 F (20.6 C)
Relative Humidity: 81%
Pressure (altimeter): 29.82 in. Hg (1009 hPa)
ob: KILM 181653Z 01013G22KT 10SM BKN013 OVC019 24/21 A2982 RMK AO2 SLP097 T02390206
cycle: 17

Station Type Date Time Source
KILM TAF 2020/09/18 16:04 UTC NOAA

TAF
AMD KILM 181602Z 1816/1912 34009KT P6SM BKN010
FM182000 02011KT P6SM BKN025
FM190400 02011KT P6SM BKN045

Example: see airport list